createdAt,value
2023-02-20T00:01:50.161Z,2.43
2023-02-20T00:04:18.267Z,2.30
2023-02-20T00:06:46.144Z,2.40
2023-02-20T00:09:14.428Z,2.23
2023-02-20T00:11:42.229Z,2.90
2023-02-20T00:14:10.069Z,2.97
2023-02-20T00:16:37.859Z,2.43
2023-02-20T00:19:06.984Z,2.70
2023-02-20T00:21:34.775Z,2.80
2023-02-20T00:24:02.536Z,2.10
2023-02-20T00:26:30.368Z,2.20
2023-02-20T00:28:58.123Z,2.90
2023-02-20T00:31:25.934Z,3.00
2023-02-20T00:33:53.763Z,3.40
2023-02-20T00:36:22.957Z,2.30
2023-02-20T00:38:50.764Z,2.63
2023-02-20T00:41:21.986Z,2.67
2023-02-20T00:43:49.726Z,2.70
2023-02-20T00:46:18.631Z,2.90
2023-02-20T00:48:46.487Z,2.83
2023-02-20T00:51:36.102Z,3.20
2023-02-20T00:54:04.074Z,1.90
2023-02-20T00:56:31.886Z,2.33
2023-02-20T00:58:59.813Z,2.87
2023-02-20T01:01:30.556Z,2.07
2023-02-20T01:03:58.345Z,3.07
2023-02-20T01:06:26.090Z,2.63
2023-02-20T01:08:55.161Z,2.70
2023-02-20T01:11:22.984Z,2.50
2023-02-20T01:13:50.797Z,2.60
2023-02-20T01:16:18.666Z,2.40
2023-02-20T01:18:50.984Z,2.33
2023-02-20T01:21:18.978Z,2.57
2023-02-20T01:23:46.829Z,2.70
2023-02-20T01:26:16.013Z,2.23
2023-02-20T01:28:45.659Z,2.50
2023-02-20T01:31:13.474Z,2.87
2023-02-20T01:33:42.787Z,2.33
2023-02-20T01:36:12.625Z,2.50
2023-02-20T01:38:42.531Z,2.50
2023-02-20T01:41:11.902Z,2.37
2023-02-20T01:43:41.048Z,2.40
2023-02-20T01:46:45.471Z,2.83
2023-02-20T01:49:20.559Z,2.10
2023-02-20T01:51:52.629Z,3.23
2023-02-20T01:54:23.280Z,2.57
2023-02-20T01:56:52.931Z,2.70
2023-02-20T01:59:24.328Z,2.47
2023-02-20T02:01:52.530Z,1.90
2023-02-20T02:04:21.094Z,2.70
2023-02-20T02:06:53.217Z,2.77
2023-02-20T02:09:30.356Z,2.70
2023-02-20T02:11:58.092Z,1.97
2023-02-20T02:14:27.562Z,2.13
2023-02-20T02:17:12.655Z,2.90
2023-02-20T02:20:06.929Z,2.30
2023-02-20T02:23:11.678Z,2.13
2023-02-20T02:25:55.206Z,2.70
2023-02-20T02:28:56.055Z,3.13
2023-02-20T02:31:51.802Z,2.50
2023-02-20T02:35:01.158Z,2.73
2023-02-20T02:37:37.470Z,2.60
2023-02-20T02:40:15.029Z,2.40
2023-02-20T02:42:50.481Z,3.10
2023-02-20T02:45:24.029Z,2.60
2023-02-20T02:47:58.055Z,2.23
2023-02-20T02:50:30.769Z,2.60
2023-02-20T02:53:00.357Z,2.77
2023-02-20T02:55:31.289Z,2.93
2023-02-20T02:58:01.505Z,2.30
2023-02-20T03:00:35.035Z,2.60
2023-02-20T03:03:09.151Z,2.57
2023-02-20T03:05:46.374Z,3.27
2023-02-20T03:08:31.265Z,1.97
2023-02-20T03:11:02.902Z,2.33
2023-02-20T03:13:52.456Z,2.57
2023-02-20T03:16:23.779Z,2.40
2023-02-20T03:18:54.155Z,2.53
2023-02-20T03:21:26.808Z,2.83
2023-02-20T03:24:00.152Z,2.30
2023-02-20T03:26:32.656Z,2.00
2023-02-20T03:29:06.808Z,2.33
2023-02-20T03:31:41.430Z,2.07
2023-02-20T03:34:29.810Z,1.80
2023-02-20T03:37:21.828Z,3.27
2023-02-20T03:40:13.363Z,3.03
2023-02-20T03:43:04.075Z,2.60
2023-02-20T03:45:40.783Z,3.20
2023-02-20T03:48:14.393Z,3.13
2023-02-20T03:50:42.875Z,3.10
2023-02-20T03:53:12.998Z,2.40
2023-02-20T03:55:43.172Z,2.50
2023-02-20T03:58:18.859Z,2.20
2023-02-20T04:00:53.167Z,1.70
2023-02-20T04:03:23.574Z,2.80
2023-02-20T04:05:57.633Z,2.20
2023-02-20T04:08:40.143Z,2.80
2023-02-20T04:11:12.057Z,1.73
2023-02-20T04:13:43.289Z,3.03
2023-02-20T04:16:12.922Z,3.10
2023-02-20T04:18:41.872Z,2.87
2023-02-20T04:21:17.211Z,3.10
2023-02-20T04:23:48.816Z,2.50
2023-02-20T04:26:22.352Z,2.90
2023-02-20T04:28:53.144Z,3.77
2023-02-20T04:31:22.360Z,2.17
2023-02-20T04:33:51.707Z,2.60
2023-02-20T04:36:24.204Z,2.30
2023-02-20T04:38:53.559Z,2.10
2023-02-20T04:41:27.227Z,2.40
2023-02-20T04:44:15.963Z,2.63
2023-02-20T04:46:45.445Z,2.53
2023-02-20T04:49:14.224Z,2.23
2023-02-20T04:51:43.497Z,2.70
2023-02-20T04:54:11.300Z,1.90
2023-02-20T04:56:40.439Z,1.93
2023-02-20T04:59:08.719Z,1.90
2023-02-20T05:01:36.699Z,3.50
2023-02-20T05:04:04.665Z,2.67
2023-02-20T05:06:32.509Z,2.53
2023-02-20T05:09:00.261Z,2.20
2023-02-20T05:11:28.021Z,2.70
2023-02-20T05:13:57.163Z,2.63
2023-02-20T05:16:27.480Z,2.77
2023-02-20T05:18:55.254Z,4.50
2023-02-20T05:21:40.537Z,3.80
2023-02-20T05:24:09.751Z,2.50
2023-02-20T05:26:37.585Z,2.70
2023-02-20T05:29:12.135Z,2.43
2023-02-20T05:31:43.117Z,3.30
2023-02-20T05:34:10.965Z,3.47
2023-02-20T05:36:38.746Z,2.50
2023-02-20T05:39:06.922Z,2.53
2023-02-20T05:41:34.879Z,3.13
2023-02-20T05:44:02.648Z,3.30
2023-02-20T05:46:31.825Z,2.20
2023-02-20T05:48:59.624Z,3.07
2023-02-20T05:51:29.098Z,3.10
2023-02-20T05:53:57.644Z,4.30
2023-02-20T05:56:25.625Z,4.17
2023-02-20T05:58:53.534Z,2.83
2023-02-20T06:01:23.135Z,3.60
2023-02-20T06:03:52.612Z,4.03
2023-02-20T06:06:21.792Z,3.77
2023-02-20T06:08:51.908Z,2.50
2023-02-20T06:11:19.725Z,2.97
2023-02-20T06:13:47.743Z,3.00
2023-02-20T06:16:23.783Z,2.50
2023-02-20T06:18:53.441Z,2.30
2023-02-20T06:21:24.561Z,2.17
2023-02-20T06:23:53.485Z,2.73
2023-02-20T06:26:22.521Z,2.40
2023-02-20T06:28:50.690Z,2.70
2023-02-20T06:31:23.603Z,2.70
2023-02-20T06:33:53.188Z,3.23
2023-02-20T06:36:24.917Z,3.27
2023-02-20T06:38:53.021Z,3.53
2023-02-20T06:41:20.847Z,2.70
2023-02-20T06:43:48.686Z,2.60
2023-02-20T06:46:16.727Z,2.40
2023-02-20T06:48:46.396Z,2.50
2023-02-20T06:51:21.208Z,2.50
2023-02-20T06:53:49.962Z,2.50
2023-02-20T06:56:20.210Z,3.20
2023-02-20T06:58:48.873Z,3.30
2023-02-20T07:01:20.236Z,3.77
2023-02-20T07:03:53.437Z,4.27
2023-02-20T07:06:23.503Z,4.43
2023-02-20T07:08:51.351Z,4.80
2023-02-20T07:11:21.310Z,4.47
2023-02-20T07:13:49.064Z,3.87
2023-02-20T07:16:17.120Z,3.87
2023-02-20T07:18:44.974Z,3.50
2023-02-20T07:21:12.771Z,3.33
2023-02-20T07:23:41.987Z,3.50
2023-02-20T07:26:18.950Z,3.00
2023-02-20T07:28:46.777Z,2.70
2023-02-20T07:31:17.426Z,3.40
2023-02-20T07:33:45.265Z,3.73
2023-02-20T07:36:15.811Z,3.20
2023-02-20T07:38:54.849Z,2.87
2023-02-20T07:41:25.721Z,3.03
2023-02-20T07:43:53.508Z,4.10
2023-02-20T07:46:21.306Z,3.07
2023-02-20T07:48:49.174Z,2.77
2023-02-20T07:51:17.878Z,3.57
2023-02-20T07:53:50.644Z,2.87
2023-02-20T07:56:18.753Z,2.97
2023-02-20T07:58:46.637Z,3.43
2023-02-20T08:01:17.502Z,2.97
2023-02-20T08:03:45.689Z,3.30
2023-02-20T08:06:17.165Z,3.43
2023-02-20T08:08:50.311Z,3.30
2023-02-20T08:11:18.614Z,2.93
2023-02-20T08:13:48.507Z,2.77
2023-02-20T08:16:16.561Z,3.33
2023-02-20T08:18:44.579Z,2.93
2023-02-20T08:21:12.635Z,2.17
2023-02-20T08:23:40.423Z,2.43
2023-02-20T08:26:12.645Z,3.80
2023-02-20T08:28:40.771Z,2.70
2023-02-20T08:31:08.631Z,2.43
2023-02-20T08:33:36.434Z,2.53
2023-02-20T08:36:04.625Z,3.00
2023-02-20T08:38:34.683Z,2.13
2023-02-20T08:41:04.860Z,2.47
2023-02-20T08:43:34.352Z,2.40
2023-02-20T08:46:02.633Z,2.37
2023-02-20T08:48:32.671Z,2.10
2023-02-20T08:51:00.534Z,2.40
2023-02-20T08:53:28.664Z,2.53
2023-02-20T08:55:59.148Z,2.50
2023-02-20T08:58:27.623Z,2.70
2023-02-20T09:00:57.052Z,2.57
2023-02-20T09:03:25.895Z,2.50
2023-02-20T09:05:54.281Z,2.47
2023-02-20T09:08:24.379Z,2.30
2023-02-20T09:10:54.493Z,2.23
2023-02-20T09:13:22.262Z,1.90
2023-02-20T09:15:50.036Z,2.13
2023-02-20T09:18:19.263Z,2.30
2023-02-20T09:20:49.313Z,2.13
2023-02-20T09:23:17.821Z,2.23
2023-02-20T09:25:45.479Z,2.00
2023-02-20T09:28:13.334Z,2.00
2023-02-20T09:30:41.206Z,2.10
2023-02-20T09:33:09.574Z,1.70
2023-02-20T09:35:38.723Z,1.97
2023-02-20T09:38:07.749Z,1.63
2023-02-20T09:40:35.654Z,1.90
2023-02-20T09:43:15.697Z,1.80
2023-02-20T09:45:49.499Z,2.43
2023-02-20T09:48:31.808Z,2.00
2023-02-20T09:51:04.974Z,1.77
2023-02-20T09:53:37.117Z,1.60
2023-02-20T09:56:14.206Z,1.70
2023-02-20T09:58:45.360Z,2.20
2023-02-20T10:01:15.975Z,1.93
2023-02-20T10:03:54.784Z,2.50
2023-02-20T10:06:27.714Z,1.90
2023-02-20T10:08:55.975Z,1.87
2023-02-20T10:11:44.187Z,1.80
2023-02-20T10:14:34.953Z,2.10
2023-02-20T10:17:11.872Z,1.70
2023-02-20T10:19:51.606Z,1.70
2023-02-20T10:22:23.297Z,1.87
2023-02-20T10:25:06.017Z,2.27
2023-02-20T10:27:43.357Z,1.73
2023-02-20T10:30:14.541Z,1.97
2023-02-20T10:32:47.233Z,1.70
2023-02-20T10:35:19.482Z,2.23
2023-02-20T10:37:54.429Z,1.93
2023-02-20T10:40:28.487Z,2.13
2023-02-20T10:43:03.344Z,1.80
2023-02-20T10:45:44.181Z,2.03
2023-02-20T10:48:15.444Z,2.20
2023-02-20T10:50:49.847Z,2.17
2023-02-20T10:53:26.492Z,2.33
2023-02-20T10:56:00.891Z,2.00
2023-02-20T10:58:34.942Z,1.90
2023-02-20T11:01:06.838Z,1.77
2023-02-20T11:03:42.549Z,1.98
2023-02-20T11:06:15.773Z,1.80
2023-02-20T11:08:45.320Z,1.70
2023-02-20T11:11:24.320Z,2.00
2023-02-20T11:13:54.185Z,1.90
2023-02-20T11:16:27.174Z,2.20
2023-02-20T11:19:03.605Z,1.90
2023-02-20T11:21:40.072Z,2.17
2023-02-20T11:24:34.282Z,1.80
2023-02-20T11:27:07.282Z,1.77
2023-02-20T11:29:39.228Z,1.55
2023-02-20T11:32:26.424Z,1.60
2023-02-20T11:35:22.158Z,1.92
2023-02-20T11:37:55.883Z,1.92
2023-02-20T11:40:30.183Z,1.50
2023-02-20T11:43:10.447Z,1.20
2023-02-20T11:45:38.234Z,1.23
2023-02-20T11:48:11.495Z,1.38
2023-02-20T11:50:43.475Z,1.15
2023-02-20T11:53:21.167Z,1.67
2023-02-20T11:55:59.698Z,1.95
2023-02-20T11:58:28.936Z,1.40
2023-02-20T12:00:58.938Z,1.48
2023-02-20T12:03:29.324Z,1.30
2023-02-20T12:05:58.068Z,1.48
2023-02-20T12:08:40.838Z,1.40
2023-02-20T12:11:13.461Z,1.50
2023-02-20T12:13:44.011Z,1.90
2023-02-20T12:16:33.870Z,1.90
2023-02-20T12:19:10.203Z,1.70
2023-02-20T12:21:50.242Z,1.60
2023-02-20T12:24:37.908Z,1.67
2023-02-20T12:27:24.857Z,1.63
2023-02-20T12:30:04.474Z,1.50
2023-02-20T12:32:40.675Z,1.60
2023-02-20T12:35:26.286Z,1.13
2023-02-20T12:38:06.755Z,1.73
2023-02-20T12:40:58.799Z,1.60
2023-02-20T12:43:40.889Z,1.52
2023-02-20T12:46:14.923Z,1.08
2023-02-20T12:49:00.080Z,1.80
2023-02-20T12:51:37.638Z,1.40
2023-02-20T12:54:23.803Z,1.10
2023-02-20T12:57:06.885Z,1.20
2023-02-20T12:59:43.182Z,1.45
2023-02-20T13:02:23.576Z,1.35
2023-02-20T13:04:58.037Z,3.00
2023-02-20T13:07:32.421Z,1.83
2023-02-20T13:10:05.540Z,1.67
2023-02-20T13:12:33.279Z,1.27
2023-02-20T13:15:17.023Z,1.30
2023-02-20T13:17:51.481Z,1.40
2023-02-20T13:20:24.061Z,1.27
2023-02-20T13:23:03.474Z,1.30
2023-02-20T13:25:42.229Z,1.08
2023-02-20T13:28:46.840Z,1.10
2023-02-20T13:31:21.633Z,1.00
2023-02-20T13:33:51.610Z,0.80
2023-02-20T13:36:42.643Z,1.38
2023-02-20T13:39:37.597Z,0.93
2023-02-20T13:42:06.637Z,1.00
2023-02-20T13:44:47.342Z,1.00
2023-02-20T13:47:41.051Z,1.10
2023-02-20T13:50:33.585Z,0.65
2023-02-20T13:53:08.426Z,0.85
2023-02-20T13:55:37.783Z,1.60
2023-02-20T13:58:12.709Z,1.65
2023-02-20T14:00:52.553Z,1.20
2023-02-20T14:03:24.862Z,1.95
2023-02-20T14:06:09.480Z,1.08
2023-02-20T14:08:43.098Z,1.15
2023-02-20T14:11:14.687Z,0.80
2023-02-20T14:13:46.647Z,0.90
2023-02-20T14:16:29.931Z,1.05
2023-02-20T14:19:00.997Z,1.05
2023-02-20T14:21:31.048Z,1.00
2023-02-20T14:24:15.118Z,1.20
2023-02-20T14:26:43.068Z,0.98
2023-02-20T14:29:22.945Z,1.10
2023-02-20T14:31:53.190Z,1.10
2023-02-20T14:34:31.392Z,0.95
2023-02-20T14:37:08.802Z,0.95
2023-02-20T14:39:54.581Z,1.10
2023-02-20T14:42:25.693Z,0.90
2023-02-20T14:45:02.669Z,0.90
2023-02-20T14:47:32.115Z,0.70
2023-02-20T14:50:17.679Z,1.10
2023-02-20T14:52:46.297Z,1.90
2023-02-20T14:55:18.861Z,1.00
2023-02-20T14:57:49.491Z,0.77
2023-02-20T15:00:33.510Z,0.73
2023-02-20T15:03:02.456Z,0.70
2023-02-20T15:05:35.360Z,0.80
2023-02-20T15:08:12.270Z,0.98
2023-02-20T15:10:42.865Z,0.82
2023-02-20T15:13:12.802Z,0.98
2023-02-20T15:15:44.141Z,1.10
2023-02-20T15:18:17.383Z,1.25
2023-02-20T15:20:49.207Z,1.05
2023-02-20T15:23:26.069Z,1.30
2023-02-20T15:25:54.133Z,0.93
2023-02-20T15:28:30.683Z,0.90
2023-02-20T15:31:23.310Z,1.52
2023-02-20T15:33:54.579Z,0.95
2023-02-20T15:36:25.773Z,0.98
2023-02-20T15:38:55.720Z,1.08
2023-02-20T15:41:23.983Z,1.15
2023-02-20T15:43:52.211Z,1.02
2023-02-20T15:46:21.412Z,1.10
2023-02-20T15:48:49.268Z,1.33
2023-02-20T15:51:20.814Z,2.30
2023-02-20T15:53:51.899Z,1.10
2023-02-20T15:56:20.403Z,1.15
2023-02-20T15:58:51.485Z,1.20
2023-02-20T16:01:19.367Z,1.98
2023-02-20T16:03:53.401Z,1.05
2023-02-20T16:06:22.408Z,1.30
2023-02-20T16:08:52.567Z,1.33
2023-02-20T16:11:21.820Z,1.02
2023-02-20T16:13:55.130Z,2.15
2023-02-20T16:16:29.210Z,1.52
2023-02-20T16:18:57.429Z,1.20
2023-02-20T16:21:26.336Z,1.55
2023-02-20T16:23:58.057Z,1.13
2023-02-20T16:26:29.789Z,1.20
2023-02-20T16:29:00.126Z,1.33
2023-02-20T16:32:14.426Z,0.93
2023-02-20T16:34:45.777Z,1.38
2023-02-20T16:37:14.749Z,1.00
2023-02-20T16:39:47.564Z,1.13
2023-02-20T16:42:33.371Z,1.00
2023-02-20T16:45:05.067Z,1.03
2023-02-20T16:47:33.927Z,1.15
2023-02-20T16:50:07.533Z,1.08
2023-02-20T16:52:38.172Z,0.90
2023-02-20T16:55:09.511Z,1.20
2023-02-20T16:57:40.863Z,1.20
2023-02-20T17:00:11.384Z,1.07
2023-02-20T17:02:40.139Z,1.33
2023-02-20T17:05:08.659Z,1.47
2023-02-20T17:07:37.331Z,1.93
2023-02-20T17:10:07.602Z,1.40
2023-02-20T17:12:36.999Z,1.53
2023-02-20T17:15:07.689Z,1.20
2023-02-20T17:17:35.921Z,1.40
2023-02-20T17:20:06.873Z,1.40
2023-02-20T17:22:35.544Z,1.30
2023-02-20T17:25:08.124Z,2.03
2023-02-20T17:27:36.549Z,2.60
2023-02-20T17:30:05.444Z,4.00
2023-02-20T17:32:33.594Z,2.30
2023-02-20T17:35:02.396Z,2.50
2023-02-20T17:37:34.601Z,2.10
2023-02-20T17:40:03.301Z,2.00
2023-02-20T17:42:33.998Z,1.57
2023-02-20T17:45:03.051Z,1.40
2023-02-20T17:47:31.444Z,1.13
2023-02-20T17:50:00.189Z,1.10
2023-02-20T17:52:29.007Z,1.53
2023-02-20T17:54:59.623Z,1.37
2023-02-20T17:57:28.465Z,2.50
2023-02-20T17:59:58.262Z,2.80
2023-02-20T18:02:26.742Z,2.17
2023-02-20T18:04:54.780Z,6.93
2023-02-20T18:07:23.463Z,3.87
2023-02-20T18:09:56.048Z,8.20
2023-02-20T18:12:25.132Z,3.70
2023-02-20T18:14:54.929Z,3.77
2023-02-20T18:17:25.074Z,3.57
2023-02-20T18:19:53.418Z,4.00
2023-02-20T18:22:21.537Z,3.30
2023-02-20T18:24:49.749Z,2.87
2023-02-20T18:27:17.551Z,2.57
2023-02-20T18:29:45.295Z,2.90
2023-02-20T18:32:13.208Z,2.73
2023-02-20T18:34:42.378Z,2.90
2023-02-20T18:37:10.146Z,2.40
2023-02-20T18:39:37.919Z,2.60
2023-02-20T18:42:08.103Z,2.63
2023-02-20T18:44:35.885Z,2.20
2023-02-20T18:47:05.353Z,2.30
2023-02-20T18:49:35.816Z,2.57
2023-02-20T18:52:07.790Z,2.70
2023-02-20T18:54:35.959Z,2.27
2023-02-20T18:57:04.424Z,3.20
2023-02-20T18:59:32.631Z,3.10
2023-02-20T19:02:03.296Z,3.30
2023-02-20T19:04:33.315Z,3.07
2023-02-20T19:07:04.662Z,4.70
2023-02-20T19:09:37.922Z,3.97
2023-02-20T19:12:07.818Z,5.37
2023-02-20T19:14:36.168Z,5.10
2023-02-20T19:17:04.586Z,3.87
2023-02-20T19:19:34.352Z,4.30
2023-02-20T19:22:02.233Z,4.07
2023-02-20T19:24:30.074Z,4.17
2023-02-20T19:26:59.153Z,4.03
2023-02-20T19:29:26.928Z,3.60
2023-02-20T19:31:54.845Z,4.40
2023-02-20T19:34:25.111Z,6.50
2023-02-20T19:36:53.969Z,4.77
2023-02-20T19:39:24.408Z,4.97
2023-02-20T19:41:52.454Z,6.10
2023-02-20T19:44:23.540Z,5.00
2023-02-20T19:46:52.387Z,5.67
2023-02-20T19:49:20.175Z,6.10
2023-02-20T19:51:48.405Z,6.70
2023-02-20T19:54:16.956Z,6.77
2023-02-20T19:56:50.019Z,5.80
2023-02-20T19:59:18.564Z,5.43
2023-02-20T20:01:52.323Z,5.63
2023-02-20T20:04:21.303Z,4.40
2023-02-20T20:06:52.316Z,4.27
2023-02-20T20:09:35.154Z,5.03
2023-02-20T20:12:05.044Z,5.77
2023-02-20T20:14:34.914Z,4.70
2023-02-20T20:17:04.555Z,4.70
2023-02-20T20:19:33.190Z,4.80
2023-02-20T20:22:03.022Z,4.57
2023-02-20T20:24:30.880Z,4.27
2023-02-20T20:26:59.310Z,4.87
2023-02-20T20:29:29.257Z,4.33
2023-02-20T20:31:57.332Z,5.17
2023-02-20T20:34:27.603Z,4.40
2023-02-20T20:36:55.320Z,3.73
2023-02-20T20:39:23.096Z,3.93
2023-02-20T20:41:50.856Z,3.77
2023-02-20T20:44:20.339Z,4.00
2023-02-20T20:46:49.676Z,4.17
2023-02-20T20:49:17.429Z,4.93
2023-02-20T20:51:47.288Z,5.37
2023-02-20T20:54:15.559Z,5.23
2023-02-20T20:56:47.032Z,5.17
2023-02-20T20:59:15.246Z,3.83
2023-02-20T21:01:43.562Z,4.87
2023-02-20T21:04:12.525Z,4.43
2023-02-20T21:06:40.345Z,3.70
2023-02-20T21:09:09.561Z,4.17
2023-02-20T21:11:37.357Z,4.67
2023-02-20T21:14:05.140Z,4.20
2023-02-20T21:16:32.931Z,5.93
2023-02-20T21:19:00.707Z,5.50
2023-02-20T21:21:29.399Z,5.73
2023-02-20T21:23:57.200Z,5.70
2023-02-20T21:26:26.357Z,5.13
2023-02-20T21:28:57.222Z,5.33
2023-02-20T21:31:26.875Z,4.87
2023-02-20T21:33:56.375Z,4.83
2023-02-20T21:36:27.426Z,5.77
2023-02-20T21:38:55.210Z,5.60
2023-02-20T21:41:42.417Z,4.73
2023-02-20T21:44:29.879Z,5.10
2023-02-20T21:46:59.385Z,3.97
2023-02-20T21:49:27.517Z,4.13
2023-02-20T21:51:57.948Z,4.37
2023-02-20T21:54:27.789Z,4.27
2023-02-20T21:56:55.947Z,7.80
2023-02-20T21:59:24.197Z,8.50
2023-02-20T22:01:51.674Z,7.67
2023-02-20T22:04:19.188Z,6.87
2023-02-20T22:07:05.831Z,6.23
2023-02-20T22:09:51.344Z,5.73
2023-02-20T22:12:36.694Z,6.20
2023-02-20T22:15:23.853Z,5.13
2023-02-20T22:18:09.304Z,5.17
2023-02-20T22:20:54.988Z,4.20
2023-02-20T22:23:40.082Z,3.40
2023-02-20T22:26:25.608Z,4.30
2023-02-20T22:29:11.157Z,3.90
2023-02-20T22:31:58.077Z,4.37
2023-02-20T22:34:45.403Z,3.93
2023-02-20T22:37:30.941Z,4.50
2023-02-20T22:40:16.433Z,5.27
2023-02-20T22:43:03.923Z,3.77
2023-02-20T22:45:49.501Z,4.30
2023-02-20T22:48:36.094Z,4.87
2023-02-20T22:51:21.266Z,5.07
2023-02-20T22:54:07.041Z,5.97
2023-02-20T22:56:52.171Z,5.13
2023-02-20T22:59:37.425Z,4.93
2023-02-20T23:02:22.654Z,4.53
2023-02-20T23:05:11.599Z,3.97
2023-02-20T23:07:56.913Z,4.60
2023-02-20T23:10:42.163Z,4.47
2023-02-20T23:13:29.764Z,5.83
2023-02-20T23:16:15.076Z,5.40
2023-02-20T23:19:00.231Z,5.77
2023-02-20T23:21:46.890Z,6.93
2023-02-20T23:24:34.430Z,4.93
2023-02-20T23:27:19.469Z,4.97
2023-02-20T23:30:07.484Z,5.63
2023-02-20T23:32:52.834Z,4.63
2023-02-20T23:35:38.290Z,6.17
2023-02-20T23:38:25.121Z,5.27
2023-02-20T23:41:10.583Z,5.27
2023-02-20T23:43:57.921Z,4.60
2023-02-20T23:46:43.513Z,5.07
2023-02-20T23:49:28.585Z,3.80
2023-02-20T23:52:16.726Z,4.60
2023-02-20T23:55:03.433Z,3.83
2023-02-20T23:57:48.603Z,4.00
